createdAt,value
2016-06-26T00:00:17.865Z,0
2016-06-26T00:01:17.870Z,0
2016-06-26T00:02:17.844Z,0
2016-06-26T00:03:17.192Z,0
2016-06-26T00:04:17.769Z,0
2016-06-26T00:05:18.340Z,0
2016-06-26T00:06:17.989Z,0
2016-06-26T00:07:18.487Z,0
2016-06-26T00:08:16.481Z,0
2016-06-26T00:09:18.291Z,0
2016-06-26T00:10:18.222Z,0
2016-06-26T00:11:17.654Z,0
2016-06-26T00:12:18.189Z,0
2016-06-26T00:13:16.998Z,0
2016-06-26T00:14:17.547Z,0
2016-06-26T00:15:17.545Z,0
2016-06-26T00:16:17.512Z,0
2016-06-26T00:17:16.881Z,0
2016-06-26T00:18:18.678Z,0
2016-06-26T00:19:17.432Z,0
2016-06-26T00:20:17.418Z,0
2016-06-26T00:21:17.393Z,0
2016-06-26T00:22:17.986Z,0
2016-06-26T00:23:16.156Z,0
2016-06-26T00:24:17.459Z,0
2016-06-26T00:25:16.710Z,0
2016-06-26T00:26:17.924Z,0
2016-06-26T00:27:17.283Z,0
2016-06-26T00:28:18.136Z,0
2016-06-26T00:29:17.794Z,0
2016-06-26T00:30:16.583Z,0
2016-06-26T00:31:15.956Z,0
2016-06-26T00:32:17.732Z,0
2016-06-26T00:33:16.538Z,0
2016-06-26T00:34:16.518Z,0
2016-06-26T00:35:17.085Z,0
2016-06-26T00:36:18.265Z,0
2016-06-26T00:37:17.211Z,0
2016-06-26T00:38:15.841Z,0
2016-06-26T00:39:17.007Z,0
2016-06-26T00:40:15.838Z,0
2016-06-26T00:41:17.578Z,0
2016-06-26T00:42:18.129Z,0
2016-06-26T00:43:16.318Z,0
2016-06-26T00:44:16.889Z,0
2016-06-26T00:45:18.061Z,0
2016-06-26T00:46:16.246Z,0
2016-06-26T00:47:17.449Z,0
2016-06-26T00:48:17.999Z,0
2016-06-26T00:49:17.378Z,0
2016-06-26T00:50:15.560Z,0
2016-06-26T00:51:17.954Z,0
2016-06-26T00:52:16.112Z,0
2016-06-26T00:53:16.094Z,0
2016-06-26T00:54:17.902Z,0
2016-06-26T00:55:17.218Z,0
2016-06-26T00:56:16.044Z,0
2016-06-26T00:57:15.409Z,0
2016-06-26T00:58:15.988Z,0
2016-06-26T00:59:16.551Z,0
2016-06-26T01:00:16.575Z,0
2016-06-26T01:01:17.116Z,0
2016-06-26T01:02:16.542Z,0
2016-06-26T01:03:16.476Z,0
2016-06-26T01:04:16.456Z,0
2016-06-26T01:05:16.411Z,0
2016-06-26T01:06:16.420Z,0
2016-06-26T01:07:15.793Z,0
2016-06-26T01:08:16.337Z,0
2016-06-26T01:09:16.959Z,0
2016-06-26T01:10:16.315Z,0
2016-06-26T01:11:16.906Z,0
2016-06-26T01:12:15.068Z,0
2016-06-26T01:13:17.451Z,0
2016-06-26T01:14:15.649Z,0
2016-06-26T01:15:15.037Z,0
2016-06-26T01:16:16.784Z,0
2016-06-26T01:17:15.562Z,0
2016-06-26T01:18:16.357Z,0
2016-06-26T01:19:16.698Z,0
2016-06-26T01:20:16.702Z,0
2016-06-26T01:21:17.262Z,0
2016-06-26T01:22:16.642Z,0
2016-06-26T01:23:15.426Z,0
2016-06-26T01:24:16.605Z,0
2016-06-26T01:25:16.028Z,0
2016-06-26T01:26:15.370Z,0
2016-06-26T01:27:15.968Z,0
2016-06-26T01:28:15.312Z,0
2016-06-26T01:29:15.914Z,0
2016-06-26T01:30:15.285Z,0
2016-06-26T01:31:15.853Z,0
2016-06-26T01:32:16.449Z,0
2016-06-26T01:33:16.402Z,0
2016-06-26T01:34:15.203Z,0
2016-06-26T01:35:15.790Z,0
2016-06-26T01:36:15.179Z,0
2016-06-26T01:37:15.123Z,0
2016-06-26T01:38:15.720Z,0
2016-06-26T01:39:15.674Z,0
2016-06-26T01:40:15.050Z,0
2016-06-26T01:41:16.238Z,0
2016-06-26T01:42:16.257Z,0
2016-06-26T01:43:16.175Z,0
2016-06-26T01:44:15.551Z,0
2016-06-26T01:45:15.754Z,0
2016-06-26T01:46:14.309Z,0
2016-06-26T01:47:15.494Z,0
2016-06-26T01:48:15.476Z,0
2016-06-26T01:49:15.458Z,0
2016-06-26T01:50:15.421Z,0
2016-06-26T01:51:15.398Z,0
2016-06-26T01:52:16.571Z,0
2016-06-26T01:53:15.963Z,0
2016-06-26T01:54:15.339Z,0
2016-06-26T01:55:15.311Z,0
2016-06-26T01:56:14.086Z,0
2016-06-26T01:57:16.102Z,0
2016-06-26T01:58:14.673Z,0
2016-06-26T01:59:14.090Z,0
2016-06-26T02:00:15.826Z,0
2016-06-26T02:01:14.577Z,0
2016-06-26T02:02:16.407Z,0
2016-06-26T02:03:15.153Z,0
2016-06-26T02:04:16.312Z,0
2016-06-26T02:05:15.683Z,0
2016-06-26T02:06:15.679Z,0
2016-06-26T02:07:15.630Z,0
2016-06-26T02:08:14.436Z,0
2016-06-26T02:09:14.406Z,0
2016-06-26T02:10:16.182Z,0
2016-06-26T02:11:15.542Z,0
2016-06-26T02:12:14.345Z,0
2016-06-26T02:13:14.322Z,0
2016-06-26T02:14:14.309Z,0
2016-06-26T02:15:16.169Z,0
2016-06-26T02:16:15.573Z,0
2016-06-26T02:17:14.820Z,0
2016-06-26T02:18:15.418Z,0
2016-06-26T02:19:14.775Z,0
2016-06-26T02:20:15.346Z,0
2016-06-26T02:21:14.154Z,0
2016-06-26T02:22:14.116Z,0
2016-06-26T02:23:14.680Z,0
2016-06-26T02:24:14.090Z,0
2016-06-26T02:25:14.627Z,0
2016-06-26T02:26:14.629Z,0
2016-06-26T02:27:15.206Z,0
2016-06-26T02:28:15.158Z,0
2016-06-26T02:29:15.149Z,0
2016-06-26T02:30:13.353Z,0
2016-06-26T02:31:13.907Z,0
2016-06-26T02:32:15.719Z,0
2016-06-26T02:33:14.465Z,0
2016-06-26T02:34:14.437Z,0
2016-06-26T02:35:15.014Z,0
2016-06-26T02:36:15.011Z,0
2016-06-26T02:37:13.753Z,0
2016-06-26T02:38:14.353Z,0
2016-06-26T02:39:13.719Z,0
2016-06-26T02:40:14.299Z,0
2016-06-26T02:41:13.090Z,0
2016-06-26T02:42:13.666Z,0
2016-06-26T02:43:13.637Z,0
2016-06-26T02:44:14.856Z,0
2016-06-26T02:45:12.983Z,0
2016-06-26T02:46:14.762Z,0
2016-06-26T02:47:12.928Z,0
2016-06-26T02:48:14.137Z,0
2016-06-26T02:49:14.087Z,0
2016-06-26T02:50:15.270Z,0
2016-06-26T02:51:13.466Z,0
2016-06-26T02:52:14.637Z,0
2016-06-26T02:53:14.630Z,0
2016-06-26T02:54:14.597Z,0
2016-06-26T02:55:13.969Z,0
2016-06-26T02:56:13.941Z,5
2016-06-26T02:57:14.516Z,5
2016-06-26T02:58:13.323Z,5
2016-06-26T02:59:14.530Z,5
2016-06-26T03:00:13.248Z,5
2016-06-26T03:01:15.015Z,5
2016-06-26T03:02:14.434Z,5
2016-06-26T03:03:13.790Z,5
2016-06-26T03:04:14.351Z,10
2016-06-26T03:05:14.339Z,10
2016-06-26T03:06:14.319Z,10
2016-06-26T03:07:13.693Z,10
2016-06-26T03:08:13.063Z,10
2016-06-26T03:09:14.248Z,15
2016-06-26T03:10:14.224Z,15
2016-06-26T03:11:13.007Z,15
2016-06-26T03:12:13.574Z,15
2016-06-26T03:13:12.973Z,15
2016-06-26T03:14:13.526Z,20
2016-06-26T03:15:12.931Z,20
2016-06-26T03:16:13.484Z,20
2016-06-26T03:17:13.451Z,25
2016-06-26T03:18:13.468Z,25
2016-06-26T03:19:12.225Z,25
2016-06-26T03:20:13.414Z,30
2016-06-26T03:21:13.382Z,30
2016-06-26T03:22:13.955Z,30
2016-06-26T03:23:12.739Z,35
2016-06-26T03:24:13.891Z,35
2016-06-26T03:25:14.495Z,35
2016-06-26T03:26:13.884Z,40
2016-06-26T03:27:12.635Z,45
2016-06-26T03:28:12.614Z,50
2016-06-26T03:29:13.789Z,50
2016-06-26T03:30:12.597Z,55
2016-06-26T03:31:13.159Z,60
2016-06-26T03:32:12.762Z,60
2016-06-26T03:33:12.498Z,60
2016-06-26T03:34:13.111Z,65
2016-06-26T03:35:12.469Z,65
2016-06-26T03:36:12.433Z,70
2016-06-26T03:37:11.841Z,75
2016-06-26T03:38:12.991Z,75
2016-06-26T03:39:12.367Z,80
2016-06-26T03:40:14.180Z,85
2016-06-26T03:41:11.709Z,90
2016-06-26T03:42:11.698Z,90
2016-06-26T03:43:12.878Z,90
2016-06-26T03:44:13.449Z,95
2016-06-26T03:45:14.046Z,95
2016-06-26T03:46:13.415Z,100
2016-06-26T03:47:13.381Z,100
2016-06-26T03:48:12.773Z,105
2016-06-26T03:49:13.333Z,110
2016-06-26T03:50:13.322Z,110
2016-06-26T03:51:13.293Z,110
2016-06-26T03:52:12.081Z,115
2016-06-26T03:53:12.058Z,120
2016-06-26T03:54:12.026Z,120
2016-06-26T03:55:13.207Z,120
2016-06-26T03:56:13.201Z,125
2016-06-26T03:57:12.562Z,130
2016-06-26T03:58:13.742Z,130
2016-06-26T03:59:12.512Z,135
2016-06-26T04:00:13.709Z,135
2016-06-26T04:01:12.482Z,140
2016-06-26T04:02:13.061Z,145
2016-06-26T04:03:12.434Z,150
2016-06-26T04:04:12.405Z,150
2016-06-26T04:05:12.384Z,155
2016-06-26T04:06:12.363Z,155
2016-06-26T04:07:12.355Z,160
2016-06-26T04:08:12.921Z,160
2016-06-26T04:09:11.099Z,165
2016-06-26T04:10:12.871Z,170
2016-06-26T04:11:11.636Z,175
2016-06-26T04:12:12.857Z,175
2016-06-26T04:13:11.590Z,175
2016-06-26T04:14:11.591Z,180
2016-06-26T04:15:12.151Z,180
2016-06-26T04:16:12.759Z,185
2016-06-26T04:17:12.718Z,190
2016-06-26T04:18:11.497Z,190
2016-06-26T04:19:12.676Z,195
2016-06-26T04:20:11.463Z,195
2016-06-26T04:21:12.646Z,200
2016-06-26T04:22:12.610Z,205
2016-06-26T04:23:11.993Z,205
2016-06-26T04:24:11.382Z,210
2016-06-26T04:25:13.153Z,215
2016-06-26T04:26:12.519Z,215
2016-06-26T04:27:11.320Z,220
2016-06-26T04:28:12.497Z,225
2016-06-26T04:29:11.844Z,225
2016-06-26T04:30:11.846Z,230
2016-06-26T04:31:13.009Z,235
2016-06-26T04:32:12.387Z,240
2016-06-26T04:33:12.354Z,240
2016-06-26T04:34:11.146Z,245
2016-06-26T04:35:10.542Z,245
2016-06-26T04:36:11.713Z,250
2016-06-26T04:37:11.687Z,250
2016-06-26T04:38:11.072Z,250
2016-06-26T04:39:11.653Z,255
2016-06-26T04:40:11.009Z,255
2016-06-26T04:41:11.575Z,260
2016-06-26T04:42:11.582Z,265
2016-06-26T04:43:11.583Z,265
2016-06-26T04:44:11.535Z,270
2016-06-26T04:45:12.126Z,275
2016-06-26T04:46:11.474Z,285
2016-06-26T04:47:11.464Z,305
2016-06-26T04:48:11.466Z,330
2016-06-26T04:49:10.803Z,380
2016-06-26T04:50:12.026Z,410
2016-06-26T04:51:10.164Z,455
2016-06-26T04:52:11.976Z,470
2016-06-26T04:53:11.933Z,455
2016-06-26T04:54:11.305Z,425
2016-06-26T04:55:11.894Z,410
2016-06-26T04:56:12.458Z,405
2016-06-26T04:57:11.858Z,380
2016-06-26T04:58:10.645Z,380
2016-06-26T04:59:11.208Z,375
2016-06-26T05:00:10.586Z,400
2016-06-26T05:01:11.770Z,380
2016-06-26T05:02:11.146Z,385
2016-06-26T05:03:10.533Z,360
2016-06-26T05:04:12.295Z,380
2016-06-26T05:05:11.090Z,425
2016-06-26T05:06:11.049Z,440
2016-06-26T05:07:11.061Z,425
2016-06-26T05:08:11.623Z,375
2016-06-26T05:09:10.418Z,380
2016-06-26T05:10:11.629Z,370
2016-06-26T05:11:10.367Z,350
2016-06-26T05:12:10.949Z,330
2016-06-26T05:13:10.916Z,345
2016-06-26T05:14:11.514Z,360
2016-06-26T05:15:10.897Z,390
2016-06-26T05:16:10.873Z,390
2016-06-26T05:17:10.491Z,395
2016-06-26T05:18:11.410Z,400
2016-06-26T05:19:12.004Z,405
2016-06-26T05:20:11.380Z,420
2016-06-26T05:21:10.171Z,435
2016-06-26T05:22:10.146Z,435
2016-06-26T05:23:11.916Z,435
2016-06-26T05:24:11.299Z,470
2016-06-26T05:25:10.686Z,535
2016-06-26T05:26:11.858Z,610
2016-06-26T05:27:10.039Z,680
2016-06-26T05:28:10.634Z,690
2016-06-26T05:29:11.205Z,675
2016-06-26T05:30:10.589Z,625
2016-06-26T05:31:11.750Z,625
2016-06-26T05:32:11.940Z,660
2016-06-26T05:33:09.930Z,660
2016-06-26T05:34:10.500Z,690
2016-06-26T05:35:10.492Z,615
2016-06-26T05:36:10.466Z,550
2016-06-26T05:37:11.648Z,555
2016-06-26T05:38:10.421Z,555
2016-06-26T05:39:11.603Z,570
2016-06-26T05:40:10.410Z,585
2016-06-26T05:41:11.616Z,625
2016-06-26T05:42:10.357Z,610
2016-06-26T05:43:09.738Z,580
2016-06-26T05:44:10.322Z,565
2016-06-26T05:45:09.698Z,580
2016-06-26T05:46:11.511Z,580
2016-06-26T05:47:10.264Z,585
2016-06-26T05:48:10.300Z,610
2016-06-26T05:49:11.438Z,645
2016-06-26T05:50:10.243Z,640
2016-06-26T05:51:10.206Z,595
2016-06-26T05:52:10.777Z,565
2016-06-26T05:53:09.609Z,575
2016-06-26T05:54:09.578Z,590
2016-06-26T05:55:11.333Z,640
2016-06-26T05:56:10.716Z,610
2016-06-26T05:57:08.894Z,515
2016-06-26T05:58:10.130Z,555
2016-06-26T05:59:10.665Z,630
2016-06-26T06:00:10.689Z,725
2016-06-26T06:01:11.217Z,845
2016-06-26T06:02:10.625Z,765
2016-06-26T06:03:09.978Z,620
2016-06-26T06:04:11.176Z,560
2016-06-26T06:05:09.975Z,585
2016-06-26T06:06:09.965Z,670
2016-06-26T06:07:09.933Z,710
2016-06-26T06:08:10.522Z,780
2016-06-26T06:09:08.702Z,780
2016-06-26T06:10:10.488Z,865
2016-06-26T06:11:09.879Z,755
2016-06-26T06:12:09.861Z,815
2016-06-26T06:13:09.224Z,895
2016-06-26T06:14:08.619Z,870
2016-06-26T06:15:10.970Z,875
2016-06-26T06:16:10.991Z,920
2016-06-26T06:17:10.358Z,780
2016-06-26T06:18:09.138Z,670
2016-06-26T06:19:10.328Z,730
2016-06-26T06:20:09.718Z,870
2016-06-26T06:21:10.313Z,675
2016-06-26T06:22:09.687Z,725
2016-06-26T06:23:09.098Z,880
2016-06-26T06:24:09.050Z,785
2016-06-26T06:25:10.239Z,645
2016-06-26T06:26:10.196Z,805
2016-06-26T06:27:09.590Z,1660
2016-06-26T06:28:10.760Z,1075
2016-06-26T06:29:10.180Z,1775
2016-06-26T06:30:09.555Z,670
2016-06-26T06:31:10.747Z,635
2016-06-26T06:32:09.500Z,785
2016-06-26T06:33:10.098Z,615
2016-06-26T06:34:10.093Z,655
2016-06-26T06:35:08.285Z,680
2016-06-26T06:36:09.443Z,665
2016-06-26T06:37:10.037Z,715
2016-06-26T06:38:10.031Z,1650
2016-06-26T06:39:10.015Z,740
2016-06-26T06:40:10.626Z,700
2016-06-26T06:41:09.375Z,835
2016-06-26T06:42:08.792Z,905
2016-06-26T06:43:09.363Z,795
2016-06-26T06:44:08.745Z,860
2016-06-26T06:45:08.695Z,790
2016-06-26T06:46:08.719Z,670
2016-06-26T06:47:08.666Z,660
2016-06-26T06:48:09.256Z,685
2016-06-26T06:49:08.629Z,575
2016-06-26T06:50:08.641Z,545
2016-06-26T06:51:09.813Z,665
2016-06-26T06:52:09.789Z,970
2016-06-26T06:53:09.179Z,960
2016-06-26T06:54:10.348Z,560
2016-06-26T06:55:08.546Z,755
2016-06-26T06:56:08.519Z,640
2016-06-26T06:57:09.772Z,985
2016-06-26T06:58:09.076Z,1005
2016-06-26T06:59:09.674Z,1035
2016-06-26T07:00:07.874Z,1015
2016-06-26T07:01:08.474Z,615
2016-06-26T07:02:10.297Z,2055
2016-06-26T07:03:09.003Z,2385
2016-06-26T07:04:08.419Z,2175
2016-06-26T07:05:08.995Z,2150
2016-06-26T07:06:09.547Z,2275
2016-06-26T07:07:09.553Z,2585
2016-06-26T07:08:08.934Z,2760
2016-06-26T07:09:08.943Z,1910
2016-06-26T07:10:08.362Z,1035
2016-06-26T07:11:09.499Z,940
2016-06-26T07:12:09.470Z,895
2016-06-26T07:13:08.270Z,1320
2016-06-26T07:14:10.022Z,740
2016-06-26T07:15:10.011Z,730
2016-06-26T07:16:08.836Z,825
2016-06-26T07:17:08.242Z,780
2016-06-26T07:18:09.355Z,825
2016-06-26T07:19:08.762Z,955
2016-06-26T07:20:09.336Z,975
2016-06-26T07:21:08.758Z,945
2016-06-26T07:22:08.707Z,795
2016-06-26T07:23:09.353Z,605
2016-06-26T07:24:09.331Z,610
2016-06-26T07:25:09.892Z,1890
2016-06-26T07:26:08.646Z,1470
2016-06-26T07:27:08.084Z,2085
2016-06-26T07:28:09.231Z,1000
2016-06-26T07:29:08.629Z,925
2016-06-26T07:30:07.416Z,1085
2016-06-26T07:31:09.163Z,2015
2016-06-26T07:32:08.586Z,1005
2016-06-26T07:33:07.943Z,2445
2016-06-26T07:34:09.746Z,1125
2016-06-26T07:35:07.960Z,1175
2016-06-26T07:36:07.927Z,1345
2016-06-26T07:37:09.103Z,1280
2016-06-26T07:38:07.874Z,1110
2016-06-26T07:39:09.112Z,935
2016-06-26T07:40:08.459Z,910
2016-06-26T07:41:08.451Z,880
2016-06-26T07:42:07.834Z,885
2016-06-26T07:43:07.235Z,890
2016-06-26T07:44:09.008Z,765
2016-06-26T07:45:08.974Z,2565
2016-06-26T07:46:07.779Z,950
2016-06-26T07:47:09.053Z,930
2016-06-26T07:48:07.742Z,2430
2016-06-26T07:49:08.918Z,2710
2016-06-26T07:50:09.534Z,2655
2016-06-26T07:51:07.706Z,2990
2016-06-26T07:52:08.269Z,1320
2016-06-26T07:53:08.286Z,1465
2016-06-26T07:54:08.258Z,2900
2016-06-26T07:55:07.026Z,2970
2016-06-26T07:56:07.631Z,2775
2016-06-26T07:57:07.628Z,1405
2016-06-26T07:58:09.389Z,1315
2016-06-26T07:59:09.398Z,990
2016-06-26T08:00:08.797Z,965
2016-06-26T08:01:08.751Z,1085
2016-06-26T08:02:08.745Z,1030
2016-06-26T08:03:08.759Z,1080
2016-06-26T08:04:07.554Z,1235
2016-06-26T08:05:07.502Z,2510
2016-06-26T08:06:06.887Z,2200
2016-06-26T08:07:08.095Z,1095
2016-06-26T08:08:08.057Z,1145
2016-06-26T08:09:08.647Z,1200
2016-06-26T08:10:08.643Z,2800
2016-06-26T08:11:08.046Z,1190
2016-06-26T08:12:08.008Z,1080
2016-06-26T08:13:09.184Z,1170
2016-06-26T08:14:06.815Z,1520
2016-06-26T08:15:08.582Z,2430
2016-06-26T08:16:08.541Z,1270
2016-06-26T08:17:06.771Z,1245
2016-06-26T08:18:08.515Z,1395
2016-06-26T08:19:07.907Z,1490
2016-06-26T08:20:07.906Z,1405
2016-06-26T08:21:07.870Z,1370
2016-06-26T08:22:07.893Z,1205
2016-06-26T08:23:07.863Z,1185
2016-06-26T08:24:07.259Z,1305
2016-06-26T08:25:07.867Z,2065
2016-06-26T08:26:07.255Z,1275
2016-06-26T08:27:08.393Z,1230
2016-06-26T08:28:08.405Z,1315
2016-06-26T08:29:06.603Z,1360
2016-06-26T08:30:07.174Z,1220
2016-06-26T08:31:07.769Z,1275
2016-06-26T08:32:07.133Z,1590
2016-06-26T08:33:07.706Z,1590
2016-06-26T08:34:07.719Z,2725
2016-06-26T08:35:07.726Z,3235
2016-06-26T08:36:07.746Z,1385
2016-06-26T08:37:07.107Z,2885
2016-06-26T08:38:07.699Z,2475
2016-06-26T08:39:08.233Z,3335
2016-06-26T08:40:08.223Z,1890
2016-06-26T08:41:08.211Z,2550
2016-06-26T08:42:08.202Z,3150
2016-06-26T08:43:07.593Z,2425
2016-06-26T08:44:07.583Z,1700
2016-06-26T08:45:07.690Z,1310
2016-06-26T08:46:07.610Z,1320
2016-06-26T08:47:06.960Z,1250
2016-06-26T08:48:08.164Z,1080
2016-06-26T08:49:08.750Z,1110
2016-06-26T08:50:08.126Z,1495
2016-06-26T08:51:06.911Z,3195
2016-06-26T08:52:06.936Z,1555
2016-06-26T08:53:07.479Z,1880
2016-06-26T08:54:07.474Z,2895
2016-06-26T08:55:08.057Z,2765
2016-06-26T08:56:07.482Z,2740
2016-06-26T08:57:06.847Z,2880
2016-06-26T08:58:06.836Z,1275
2016-06-26T08:59:08.003Z,3390
2016-06-26T09:00:06.223Z,1305
2016-06-26T09:01:08.006Z,3575
2016-06-26T09:02:06.795Z,3780
2016-06-26T09:03:06.766Z,1775
2016-06-26T09:04:07.355Z,1920
2016-06-26T09:05:07.370Z,1630
2016-06-26T09:06:07.346Z,1885
2016-06-26T09:07:06.749Z,1760
2016-06-26T09:08:06.740Z,3570
2016-06-26T09:09:07.316Z,3670
2016-06-26T09:10:06.709Z,3195
2016-06-26T09:11:08.506Z,3500
2016-06-26T09:12:09.483Z,1525
2016-06-26T09:13:07.280Z,1405
2016-06-26T09:14:06.652Z,2805
2016-06-26T09:15:07.274Z,1210
2016-06-26T09:16:07.859Z,1085
2016-06-26T09:17:07.266Z,2375
2016-06-26T09:18:07.222Z,965
2016-06-26T09:19:07.834Z,2670
2016-06-26T09:20:07.808Z,1915
2016-06-26T09:21:06.606Z,1250
2016-06-26T09:22:07.197Z,1510
2016-06-26T09:23:08.374Z,2420
2016-06-26T09:24:07.793Z,1455
2016-06-26T09:25:07.164Z,2715
2016-06-26T09:26:07.756Z,1400
2016-06-26T09:27:07.736Z,1380
2016-06-26T09:28:07.755Z,3835
2016-06-26T09:29:08.331Z,1585
2016-06-26T09:30:07.740Z,1295
2016-06-26T09:31:07.123Z,1335
2016-06-26T09:32:07.119Z,1490
2016-06-26T09:33:07.110Z,1195
2016-06-26T09:34:07.085Z,1015
2016-06-26T09:35:07.676Z,1000
2016-06-26T09:36:07.055Z,985
2016-06-26T09:37:07.052Z,1955
2016-06-26T09:38:07.016Z,900
2016-06-26T09:39:07.617Z,3110
2016-06-26T09:40:06.427Z,1330
2016-06-26T09:41:07.029Z,3020
2016-06-26T09:42:06.990Z,1230
2016-06-26T09:43:06.990Z,3350
2016-06-26T09:44:06.997Z,1110
2016-06-26T09:45:06.368Z,2145
2016-06-26T09:46:07.544Z,2150
2016-06-26T09:47:07.537Z,3285
2016-06-26T09:48:06.933Z,870
2016-06-26T09:49:06.341Z,940
2016-06-26T09:50:08.101Z,1095
2016-06-26T09:51:07.504Z,3455
2016-06-26T09:52:07.491Z,1610
2016-06-26T09:53:07.019Z,3840
2016-06-26T09:54:06.845Z,1795
2016-06-26T09:55:06.291Z,3980
2016-06-26T09:56:06.855Z,1710
2016-06-26T09:57:06.832Z,1395
2016-06-26T09:58:06.809Z,3655
2016-06-26T09:59:07.426Z,2775
2016-06-26T10:00:06.795Z,3320
2016-06-26T10:01:06.808Z,3235
2016-06-26T10:02:07.353Z,3125
2016-06-26T10:03:07.359Z,3120
2016-06-26T10:04:07.331Z,3090
2016-06-26T10:05:06.149Z,3360
2016-06-26T10:06:06.770Z,3340
2016-06-26T10:07:07.347Z,3315
2016-06-26T10:08:06.115Z,1615
2016-06-26T10:09:07.347Z,1910
2016-06-26T10:10:05.503Z,3785
2016-06-26T10:11:06.091Z,3625
2016-06-26T10:12:06.727Z,3670
2016-06-26T10:13:07.897Z,3765
2016-06-26T10:14:07.262Z,3790
2016-06-26T10:15:06.677Z,3515
2016-06-26T10:16:06.670Z,3990
2016-06-26T10:17:06.658Z,3885
2016-06-26T10:18:06.670Z,1535
2016-06-26T10:19:07.838Z,940
2016-06-26T10:20:07.281Z,850
2016-06-26T10:21:06.068Z,930
2016-06-26T10:22:07.223Z,995
2016-06-26T10:23:07.215Z,1085
2016-06-26T10:24:07.208Z,1380
2016-06-26T10:25:06.767Z,1550
2016-06-26T10:26:07.786Z,1620
2016-06-26T10:27:06.584Z,2035
2016-06-26T10:28:06.590Z,1395
2016-06-26T10:29:07.169Z,1090
2016-06-26T10:30:05.947Z,935
2016-06-26T10:31:05.964Z,2215
2016-06-26T10:32:07.797Z,3335
2016-06-26T10:33:07.139Z,3405
2016-06-26T10:34:05.345Z,3395
2016-06-26T10:35:07.111Z,3360
2016-06-26T10:36:07.694Z,3450
2016-06-26T10:37:06.484Z,3695
2016-06-26T10:38:07.092Z,1060
2016-06-26T10:39:07.071Z,1185
2016-06-26T10:40:07.067Z,1280
2016-06-26T10:41:07.074Z,1360
2016-06-26T10:42:05.882Z,3675
2016-06-26T10:43:07.645Z,3620
2016-06-26T10:44:06.451Z,3825
2016-06-26T10:45:05.806Z,3795
2016-06-26T10:46:06.439Z,2855
2016-06-26T10:47:07.199Z,3855
2016-06-26T10:48:05.793Z,3790
2016-06-26T10:49:07.012Z,3935
2016-06-26T10:50:07.576Z,4125
2016-06-26T10:51:05.786Z,3135
2016-06-26T10:52:06.965Z,1270
2016-06-26T10:53:07.597Z,1255
2016-06-26T10:54:06.968Z,2545
2016-06-26T10:55:06.959Z,975
2016-06-26T10:56:07.001Z,1085
2016-06-26T10:57:05.737Z,3780
2016-06-26T10:58:06.355Z,2035
2016-06-26T10:59:06.929Z,3785
2016-06-26T11:00:05.719Z,1345
2016-06-26T11:01:05.713Z,1095
2016-06-26T11:02:05.730Z,1005
2016-06-26T11:03:06.332Z,1150
2016-06-26T11:04:06.924Z,3890
2016-06-26T11:05:06.295Z,3610
2016-06-26T11:06:06.885Z,3480
2016-06-26T11:07:06.289Z,3060
2016-06-26T11:08:06.262Z,1110
2016-06-26T11:09:06.856Z,3445
2016-06-26T11:10:06.258Z,3415
2016-06-26T11:11:06.258Z,1455
2016-06-26T11:12:05.649Z,3725
2016-06-26T11:13:06.216Z,1255
2016-06-26T11:14:06.238Z,1425
2016-06-26T11:15:06.789Z,2775
2016-06-26T11:16:06.815Z,1770
2016-06-26T11:17:06.812Z,3675
2016-06-26T11:18:06.174Z,3960
2016-06-26T11:19:05.577Z,2105
2016-06-26T11:20:06.758Z,3695
2016-06-26T11:21:06.153Z,3770
2016-06-26T11:22:06.750Z,3585
2016-06-26T11:23:07.381Z,3580
2016-06-26T11:24:05.521Z,3595
2016-06-26T11:25:06.143Z,3680
2016-06-26T11:26:07.328Z,3595
2016-06-26T11:27:05.527Z,3560
2016-06-26T11:28:06.098Z,3685
2016-06-26T11:29:04.930Z,3695
2016-06-26T11:30:06.110Z,3500
2016-06-26T11:31:06.138Z,3470
2016-06-26T11:32:06.710Z,3510
2016-06-26T11:33:06.695Z,3510
2016-06-26T11:34:06.080Z,3590
2016-06-26T11:35:06.691Z,3590
2016-06-26T11:36:07.268Z,3555
2016-06-26T11:37:06.707Z,1450
2016-06-26T11:38:06.087Z,880
2016-06-26T11:39:06.090Z,3835
2016-06-26T11:40:06.068Z,1925
2016-06-26T11:41:06.693Z,4025
2016-06-26T11:42:06.062Z,4020
2016-06-26T11:43:06.651Z,3600
2016-06-26T11:44:05.455Z,3945
2016-06-26T11:45:06.889Z,3930
2016-06-26T11:46:06.042Z,1400
2016-06-26T11:47:06.023Z,1335
2016-06-26T11:48:06.663Z,3875
2016-06-26T11:49:05.427Z,3930
2016-06-26T11:50:05.455Z,4125
2016-06-26T11:51:07.231Z,4110
2016-06-26T11:52:06.017Z,3900
2016-06-26T11:53:06.010Z,3790
2016-06-26T11:54:06.611Z,3855
2016-06-26T11:55:06.653Z,3755
2016-06-26T11:56:06.009Z,3720
2016-06-26T11:57:05.396Z,3815
2016-06-26T11:58:06.013Z,3825
2016-06-26T11:59:05.973Z,3860
2016-06-26T12:00:06.015Z,3870
2016-06-26T12:01:07.197Z,3915
2016-06-26T12:02:06.615Z,4040
2016-06-26T12:03:06.010Z,4050
2016-06-26T12:04:05.974Z,4145
2016-06-26T12:05:05.393Z,4095
2016-06-26T12:06:06.584Z,4055
2016-06-26T12:07:05.990Z,3920
2016-06-26T12:08:05.972Z,3920
2016-06-26T12:09:06.608Z,4005
2016-06-26T12:10:06.638Z,4040
2016-06-26T12:11:05.989Z,4130
2016-06-26T12:12:05.375Z,4130
2016-06-26T12:13:05.986Z,4170
2016-06-26T12:14:05.987Z,4205
2016-06-26T12:15:05.966Z,2735
2016-06-26T12:16:05.361Z,1220
2016-06-26T12:17:06.559Z,4095
2016-06-26T12:18:05.983Z,3675
2016-06-26T12:19:06.550Z,4280
2016-06-26T12:20:06.590Z,2170
2016-06-26T12:21:06.551Z,1285
2016-06-26T12:22:05.588Z,1515
2016-06-26T12:23:05.966Z,1605
2016-06-26T12:24:05.974Z,3945
2016-06-26T12:25:07.192Z,3925
2016-06-26T12:26:05.366Z,1420
2016-06-26T12:27:05.953Z,3355
2016-06-26T12:28:05.325Z,3860
2016-06-26T12:29:05.356Z,2925
2016-06-26T12:30:06.568Z,3965
2016-06-26T12:31:06.547Z,3880
2016-06-26T12:32:06.533Z,3965
2016-06-26T12:33:05.358Z,3970
2016-06-26T12:34:06.507Z,3975
2016-06-26T12:35:04.760Z,4030
2016-06-26T12:36:05.328Z,4185
2016-06-26T12:37:06.531Z,4035
2016-06-26T12:38:07.130Z,4005
2016-06-26T12:39:06.559Z,4045
2016-06-26T12:40:06.496Z,3330
2016-06-26T12:41:05.295Z,4070
2016-06-26T12:42:06.478Z,2755
2016-06-26T12:43:07.075Z,3925
2016-06-26T12:44:05.930Z,1935
2016-06-26T12:45:06.496Z,4030
2016-06-26T12:46:05.931Z,4045
2016-06-26T12:47:05.897Z,4010
2016-06-26T12:48:05.295Z,3870
2016-06-26T12:49:06.504Z,1395
2016-06-26T12:50:05.304Z,2455
2016-06-26T12:51:07.073Z,4175
2016-06-26T12:52:05.906Z,1330
2016-06-26T12:53:07.097Z,1265
2016-06-26T12:54:05.299Z,1205
2016-06-26T12:55:06.515Z,1190
2016-06-26T12:56:05.278Z,1245
2016-06-26T12:57:05.295Z,1150
2016-06-26T12:58:06.578Z,975
2016-06-26T12:59:05.882Z,1360
2016-06-26T13:00:07.107Z,3935
2016-06-26T13:01:06.485Z,2525
2016-06-26T13:02:07.059Z,1215
2016-06-26T13:03:05.910Z,1160
2016-06-26T13:04:05.853Z,3980
2016-06-26T13:05:06.483Z,4030
2016-06-26T13:06:06.461Z,4050
2016-06-26T13:07:05.854Z,3915
2016-06-26T13:08:07.025Z,4005
2016-06-26T13:09:05.820Z,3980
2016-06-26T13:10:05.869Z,1175
2016-06-26T13:11:06.430Z,1130
2016-06-26T13:12:05.228Z,2870
2016-06-26T13:13:05.810Z,1410
2016-06-26T13:14:06.411Z,1205
2016-06-26T13:15:05.825Z,980
2016-06-26T13:16:06.411Z,1050
2016-06-26T13:17:06.404Z,1135
2016-06-26T13:18:06.415Z,2135
2016-06-26T13:19:05.205Z,3825
2016-06-26T13:20:05.782Z,4010
2016-06-26T13:21:05.775Z,1635
2016-06-26T13:22:05.757Z,1320
2016-06-26T13:23:06.377Z,1205
2016-06-26T13:24:05.754Z,1200
2016-06-26T13:25:04.568Z,1195
2016-06-26T13:26:05.739Z,1245
2016-06-26T13:27:05.745Z,1280
2016-06-26T13:28:06.327Z,1160
2016-06-26T13:29:06.927Z,985
2016-06-26T13:30:05.117Z,785
2016-06-26T13:31:05.727Z,590
2016-06-26T13:32:05.729Z,465
2016-06-26T13:33:05.697Z,385
2016-06-26T13:34:06.895Z,330
2016-06-26T13:35:06.285Z,290
2016-06-26T13:36:05.678Z,260
2016-06-26T13:37:05.650Z,240
2016-06-26T13:38:05.064Z,235
2016-06-26T13:39:05.630Z,255
2016-06-26T13:40:06.866Z,265
2016-06-26T13:41:06.210Z,255
2016-06-26T13:42:05.651Z,215
2016-06-26T13:43:05.704Z,180
2016-06-26T13:44:04.978Z,165
2016-06-26T13:45:05.555Z,185
2016-06-26T13:46:04.975Z,210
2016-06-26T13:47:05.553Z,230